createdAt,value
2022-12-23T00:01:22.544Z,10.50
2022-12-23T00:03:52.072Z,10.50
2022-12-23T00:06:21.184Z,10.60
2022-12-23T00:08:49.274Z,10.60
2022-12-23T00:11:19.498Z,10.60
2022-12-23T00:14:05.058Z,10.50
2022-12-23T00:16:36.206Z,10.60
2022-12-23T00:19:05.710Z,10.50
2022-12-23T00:21:33.989Z,10.50
2022-12-23T00:24:02.129Z,10.60
2022-12-23T00:26:30.011Z,10.60
2022-12-23T00:28:58.658Z,10.60
2022-12-23T00:31:27.097Z,10.60
2022-12-23T00:33:55.139Z,10.60
2022-12-23T00:36:27.464Z,10.60
2022-12-23T00:39:14.188Z,10.70
2022-12-23T00:41:59.928Z,10.70
2022-12-23T00:44:28.419Z,10.70
2022-12-23T00:46:56.340Z,10.70
2022-12-23T00:49:41.892Z,10.80
2022-12-23T00:52:13.485Z,10.80
2022-12-23T00:54:41.428Z,10.80
2022-12-23T00:57:09.319Z,10.80
2022-12-23T00:59:37.394Z,10.80
2022-12-23T01:02:37.656Z,10.80
2022-12-23T01:05:24.009Z,10.90
2022-12-23T01:07:53.290Z,10.90
2022-12-23T01:10:21.208Z,10.90
2022-12-23T01:12:49.160Z,10.90
2022-12-23T01:15:17.382Z,10.90
2022-12-23T01:17:45.311Z,10.90
2022-12-23T01:20:14.119Z,10.90
2022-12-23T01:22:42.206Z,10.90
2022-12-23T01:25:11.924Z,10.90
2022-12-23T01:27:40.107Z,10.90
2022-12-23T01:30:09.155Z,11.00
2022-12-23T01:32:37.200Z,11.00
2022-12-23T01:35:05.781Z,11.00
2022-12-23T01:37:34.465Z,11.00
2022-12-23T01:40:02.348Z,11.00
2022-12-23T01:42:46.559Z,11.00
2022-12-23T01:45:18.223Z,11.10
2022-12-23T01:47:54.560Z,11.10
2022-12-23T01:50:28.945Z,11.10
2022-12-23T01:53:07.812Z,11.10
2022-12-23T01:55:40.514Z,11.10
2022-12-23T01:58:13.937Z,11.10
2022-12-23T02:01:00.994Z,11.20
2022-12-23T02:03:44.727Z,11.10
2022-12-23T02:06:37.226Z,11.20
2022-12-23T02:09:18.956Z,11.20
2022-12-23T02:12:32.753Z,11.20
2022-12-23T02:15:47.229Z,11.20
2022-12-23T02:18:34.527Z,11.30
2022-12-23T02:21:29.739Z,11.30
2022-12-23T02:24:36.614Z,11.30
2022-12-23T02:27:17.104Z,11.30
2022-12-23T02:30:33.073Z,11.30
2022-12-23T02:33:29.045Z,11.30
2022-12-23T02:36:03.804Z,11.30
2022-12-23T02:38:41.410Z,11.40
2022-12-23T02:41:17.807Z,11.30
2022-12-23T02:43:50.070Z,11.40
2022-12-23T02:46:23.843Z,11.40
2022-12-23T02:48:58.249Z,11.40
2022-12-23T02:51:31.068Z,11.40
2022-12-23T02:54:03.751Z,11.40
2022-12-23T02:56:34.403Z,11.40
2022-12-23T02:59:07.163Z,11.50
2022-12-23T03:01:36.709Z,11.50
2022-12-23T03:04:06.827Z,11.50
2022-12-23T03:06:40.246Z,11.50
2022-12-23T03:09:08.891Z,11.50
2022-12-23T03:11:46.817Z,11.50
2022-12-23T03:14:35.324Z,11.50
2022-12-23T03:17:16.003Z,11.50
2022-12-23T03:19:52.819Z,11.50
2022-12-23T03:22:25.521Z,11.60
2022-12-23T03:25:00.148Z,11.60
2022-12-23T03:27:34.927Z,11.60
2022-12-23T03:30:07.107Z,11.60
2022-12-23T03:32:38.823Z,11.60
2022-12-23T03:35:11.284Z,11.60
2022-12-23T03:37:45.187Z,11.60
2022-12-23T03:40:19.010Z,11.60
2022-12-23T03:42:51.844Z,11.60
2022-12-23T03:45:41.630Z,11.60
2022-12-23T03:48:15.563Z,11.60
2022-12-23T03:50:47.267Z,11.60
2022-12-23T03:53:20.730Z,11.60
2022-12-23T03:55:54.807Z,11.60
2022-12-23T03:58:31.890Z,11.60
2022-12-23T04:01:09.038Z,11.60
2022-12-23T04:03:42.990Z,11.60
2022-12-23T04:06:16.345Z,11.60
2022-12-23T04:08:47.173Z,11.60
2022-12-23T04:11:15.476Z,11.60
2022-12-23T04:13:43.466Z,11.60
2022-12-23T04:16:11.925Z,11.50
2022-12-23T04:18:39.838Z,11.50
2022-12-23T04:21:07.821Z,11.60
2022-12-23T04:23:37.351Z,11.60
2022-12-23T04:26:05.589Z,11.60
2022-12-23T04:28:33.632Z,11.60
2022-12-23T04:31:01.538Z,11.60
2022-12-23T04:33:29.810Z,11.60
2022-12-23T04:35:59.829Z,11.60
2022-12-23T04:38:27.663Z,11.60
2022-12-23T04:40:57.242Z,11.60
2022-12-23T04:43:25.102Z,11.60
2022-12-23T04:45:53.296Z,11.60
2022-12-23T04:48:21.240Z,11.60
2022-12-23T04:50:49.126Z,11.60
2022-12-23T04:53:17.077Z,11.60
2022-12-23T04:55:44.980Z,11.60
2022-12-23T04:58:14.279Z,11.60
2022-12-23T05:00:42.229Z,11.60
2022-12-23T05:03:10.278Z,11.60
2022-12-23T05:05:43.635Z,11.60
2022-12-23T05:08:11.534Z,11.60
2022-12-23T05:10:39.459Z,11.60
2022-12-23T05:13:07.356Z,11.60
2022-12-23T05:15:36.580Z,11.70
2022-12-23T05:18:04.608Z,11.60
2022-12-23T05:20:32.537Z,11.60
2022-12-23T05:23:00.469Z,11.60
2022-12-23T05:25:28.411Z,11.60
2022-12-23T05:27:56.285Z,11.60
2022-12-23T05:30:24.167Z,11.60
2022-12-23T05:32:55.759Z,11.60
2022-12-23T05:35:23.918Z,11.60
2022-12-23T05:37:52.171Z,11.60
2022-12-23T05:40:23.919Z,11.60
2022-12-23T05:42:55.442Z,11.60
2022-12-23T05:45:23.706Z,11.60
2022-12-23T05:47:51.669Z,11.60
2022-12-23T05:50:21.360Z,11.60
2022-12-23T05:52:49.258Z,11.60
2022-12-23T05:55:17.496Z,11.60
2022-12-23T05:57:45.629Z,11.60
2022-12-23T06:00:14.798Z,11.60
2022-12-23T06:02:44.393Z,11.60
2022-12-23T06:05:15.923Z,11.60
2022-12-23T06:07:45.245Z,11.60
2022-12-23T06:10:13.355Z,11.60
2022-12-23T06:12:41.259Z,11.60
2022-12-23T06:15:09.781Z,11.60
2022-12-23T06:17:37.748Z,11.60
2022-12-23T06:20:06.652Z,11.60
2022-12-23T06:22:34.871Z,11.60
2022-12-23T06:25:04.215Z,11.60
2022-12-23T06:27:32.387Z,11.60
2022-12-23T06:30:00.372Z,11.60
2022-12-23T06:32:31.615Z,11.60
2022-12-23T06:35:04.133Z,11.60
2022-12-23T06:37:32.227Z,11.60
2022-12-23T06:40:00.153Z,11.60
2022-12-23T06:42:29.452Z,11.60
2022-12-23T06:44:57.609Z,11.60
2022-12-23T06:47:25.541Z,11.60
2022-12-23T06:49:53.438Z,11.60
2022-12-23T06:52:22.861Z,11.60
2022-12-23T06:54:50.782Z,11.60
2022-12-23T06:57:18.769Z,11.50
2022-12-23T06:59:48.023Z,11.50
2022-12-23T07:02:16.420Z,11.60
2022-12-23T07:04:44.359Z,11.50
2022-12-23T07:07:12.294Z,11.50
2022-12-23T07:09:40.162Z,11.50
2022-12-23T07:12:08.250Z,11.50
2022-12-23T07:14:36.366Z,11.50
2022-12-23T07:17:05.677Z,11.50
2022-12-23T07:19:34.131Z,11.50
2022-12-23T07:22:02.034Z,11.50
2022-12-23T07:24:29.952Z,11.50
2022-12-23T07:26:58.099Z,11.50
2022-12-23T07:29:26.021Z,11.50
2022-12-23T07:31:54.179Z,11.50
2022-12-23T07:34:23.510Z,11.50
2022-12-23T07:36:51.437Z,11.50
2022-12-23T07:39:19.315Z,11.50
2022-12-23T07:41:47.212Z,11.50
2022-12-23T07:44:15.703Z,11.50
2022-12-23T07:46:43.751Z,11.50
2022-12-23T07:49:11.693Z,11.50
2022-12-23T07:51:41.264Z,11.50
2022-12-23T07:54:09.179Z,11.50
2022-12-23T07:56:37.068Z,11.50
2022-12-23T07:59:04.971Z,11.50
2022-12-23T08:01:33.019Z,11.60
2022-12-23T08:04:01.017Z,11.60
2022-12-23T08:06:28.902Z,11.50
2022-12-23T08:08:58.246Z,11.50
2022-12-23T08:11:26.175Z,11.60
2022-12-23T08:13:54.122Z,11.60
2022-12-23T08:16:22.046Z,11.60
2022-12-23T08:18:49.899Z,11.60
2022-12-23T08:21:20.047Z,11.60
2022-12-23T08:23:48.333Z,11.60
2022-12-23T08:26:20.978Z,11.60
2022-12-23T08:28:49.537Z,11.70
2022-12-23T08:31:19.665Z,11.70
2022-12-23T08:33:49.218Z,11.80
2022-12-23T08:36:23.044Z,11.80
2022-12-23T08:38:52.331Z,11.80
2022-12-23T08:41:25.309Z,11.80
2022-12-23T08:43:53.612Z,11.80
2022-12-23T08:46:22.261Z,11.80
2022-12-23T08:48:51.344Z,11.90
2022-12-23T08:51:21.656Z,11.90
2022-12-23T08:53:52.508Z,11.90
2022-12-23T08:56:27.680Z,11.90
2022-12-23T08:58:56.779Z,11.90
2022-12-23T09:01:26.715Z,11.90
2022-12-23T09:03:55.637Z,12.00
2022-12-23T09:06:29.651Z,11.90
2022-12-23T09:08:58.796Z,12.00
2022-12-23T09:11:29.587Z,12.00
2022-12-23T09:13:59.277Z,12.00
2022-12-23T09:16:27.526Z,12.10
2022-12-23T09:18:55.523Z,12.10
2022-12-23T09:21:24.816Z,12.10
2022-12-23T09:23:53.113Z,12.10
2022-12-23T09:26:23.241Z,12.10
2022-12-23T09:28:52.887Z,12.10
2022-12-23T09:31:22.074Z,12.10
2022-12-23T09:33:51.792Z,12.10
2022-12-23T09:36:20.287Z,12.10
2022-12-23T09:38:48.204Z,12.10
2022-12-23T09:41:43.474Z,12.10
2022-12-23T09:44:27.368Z,12.20
2022-12-23T09:46:59.213Z,12.20
2022-12-23T09:49:28.252Z,12.20
2022-12-23T09:52:01.202Z,12.20
2022-12-23T09:54:31.014Z,12.20
2022-12-23T09:57:01.487Z,12.20
2022-12-23T09:59:46.650Z,12.30
2022-12-23T10:02:25.948Z,12.30
2022-12-23T10:05:02.815Z,12.30
2022-12-23T10:07:38.357Z,12.30
2022-12-23T10:10:14.719Z,12.40
2022-12-23T10:12:49.446Z,12.40
2022-12-23T10:15:22.808Z,12.30
2022-12-23T10:17:55.712Z,12.40
2022-12-23T10:20:36.327Z,12.30
2022-12-23T10:23:05.659Z,12.30
2022-12-23T10:25:38.299Z,12.30
2022-12-23T10:28:06.266Z,12.30
2022-12-23T10:31:05.728Z,12.30
2022-12-23T10:33:37.059Z,12.30
2022-12-23T10:36:10.613Z,12.30
2022-12-23T10:38:48.843Z,12.30
2022-12-23T10:41:28.341Z,12.30
2022-12-23T10:44:09.775Z,12.30
2022-12-23T10:46:49.054Z,12.30
2022-12-23T10:49:25.416Z,12.30
2022-12-23T10:51:58.511Z,12.30
2022-12-23T10:54:33.688Z,12.30
2022-12-23T10:57:02.256Z,12.30
2022-12-23T10:59:32.839Z,12.30
2022-12-23T11:02:11.017Z,12.30
2022-12-23T11:04:41.481Z,12.30
2022-12-23T11:07:42.853Z,12.30
2022-12-23T11:10:03.395Z,12.30
2022-12-23T11:12:46.833Z,12.40
2022-12-23T11:15:32.855Z,12.40
2022-12-23T11:18:06.090Z,12.40
2022-12-23T11:20:34.975Z,12.40
2022-12-23T11:23:04.606Z,12.40
2022-12-23T11:25:37.818Z,12.40
2022-12-23T11:28:12.353Z,12.40
2022-12-23T11:30:56.744Z,12.40
2022-12-23T11:33:29.108Z,12.40
2022-12-23T11:36:06.651Z,12.40
2022-12-23T11:38:36.556Z,12.40
2022-12-23T11:41:06.427Z,12.40
2022-12-23T11:43:35.183Z,12.40
2022-12-23T11:46:26.299Z,12.40
2022-12-23T11:49:07.925Z,12.40
2022-12-23T11:51:35.863Z,12.40
2022-12-23T11:54:04.988Z,12.40
2022-12-23T11:56:39.938Z,12.40
2022-12-23T11:59:10.283Z,12.40
2022-12-23T12:01:39.439Z,12.40
2022-12-23T12:04:15.757Z,12.40
2022-12-23T12:06:51.321Z,12.40
2022-12-23T12:09:25.176Z,12.40
2022-12-23T12:11:58.305Z,12.50
2022-12-23T12:14:32.378Z,12.50
2022-12-23T12:17:05.018Z,12.50
2022-12-23T12:19:37.232Z,12.50
2022-12-23T12:22:17.490Z,12.50
2022-12-23T12:24:51.591Z,12.50
2022-12-23T12:27:27.468Z,12.50
2022-12-23T12:30:00.141Z,12.50
2022-12-23T12:32:37.558Z,12.50
2022-12-23T12:35:11.519Z,12.50
2022-12-23T12:37:44.274Z,12.50
2022-12-23T12:40:21.896Z,12.50
2022-12-23T12:42:56.451Z,12.50
2022-12-23T12:45:28.241Z,12.50
2022-12-23T12:48:18.089Z,12.50
2022-12-23T12:50:56.179Z,12.50
2022-12-23T12:53:25.132Z,12.50
2022-12-23T12:55:59.416Z,12.50
2022-12-23T12:58:27.787Z,12.50
2022-12-23T13:01:08.030Z,12.50
2022-12-23T13:04:05.394Z,12.50
2022-12-23T13:06:44.275Z,12.50
2022-12-23T13:09:23.913Z,12.40
2022-12-23T13:11:59.083Z,12.50
2022-12-23T13:14:35.973Z,12.40
2022-12-23T13:17:09.215Z,12.40
2022-12-23T13:19:43.856Z,12.40
2022-12-23T13:22:18.044Z,12.40
2022-12-23T13:24:57.584Z,12.40
2022-12-23T13:27:32.813Z,12.40
2022-12-23T13:30:12.093Z,12.40
2022-12-23T13:33:07.945Z,12.40
2022-12-23T13:36:04.750Z,12.40
2022-12-23T13:38:52.799Z,12.40
2022-12-23T13:41:26.730Z,12.40
2022-12-23T13:43:57.346Z,12.50
2022-12-23T13:46:35.422Z,12.40
2022-12-23T13:49:11.141Z,12.40
2022-12-23T13:51:47.720Z,12.40
2022-12-23T13:54:29.059Z,12.40
2022-12-23T13:57:08.421Z,12.40
2022-12-23T13:59:41.201Z,12.40
2022-12-23T14:02:44.497Z,12.40
2022-12-23T14:05:34.795Z,12.40
2022-12-23T14:08:05.927Z,12.50
2022-12-23T14:10:36.357Z,12.40
2022-12-23T14:13:07.998Z,12.40
2022-12-23T14:15:58.528Z,12.40
2022-12-23T14:18:50.792Z,12.40
2022-12-23T14:21:29.492Z,12.40
2022-12-23T14:24:13.128Z,12.40
2022-12-23T14:27:01.013Z,12.50
2022-12-23T14:30:04.919Z,12.50
2022-12-23T14:32:43.895Z,12.50
2022-12-23T14:35:59.622Z,12.50
2022-12-23T14:38:32.465Z,12.50
2022-12-23T14:41:20.444Z,12.50
2022-12-23T14:44:19.214Z,12.50
2022-12-23T14:46:57.483Z,12.60
2022-12-23T14:49:41.647Z,12.60
2022-12-23T14:52:55.447Z,12.60
2022-12-23T14:55:46.023Z,12.60
2022-12-23T14:58:49.395Z,12.60
2022-12-23T15:01:22.295Z,12.60
2022-12-23T15:04:00.753Z,12.60
2022-12-23T15:06:36.365Z,12.60
2022-12-23T15:09:06.089Z,12.70
2022-12-23T15:11:36.814Z,12.70
2022-12-23T15:14:09.858Z,12.70
2022-12-23T15:16:45.018Z,12.70
2022-12-23T15:19:22.336Z,12.70
2022-12-23T15:22:00.287Z,12.70
2022-12-23T15:24:31.272Z,12.70
2022-12-23T15:29:51.616Z,12.70
2022-12-23T15:32:24.191Z,12.70
2022-12-23T15:34:53.781Z,12.80
2022-12-23T15:37:28.572Z,12.80
2022-12-23T15:40:04.869Z,12.80
2022-12-23T15:42:39.825Z,12.80
2022-12-23T15:45:30.989Z,12.80
2022-12-23T15:48:00.531Z,12.80
2022-12-23T15:50:29.252Z,12.80
2022-12-23T15:53:00.977Z,12.80
2022-12-23T15:55:32.264Z,12.80
2022-12-23T15:58:01.585Z,12.80
2022-12-23T16:00:36.298Z,12.90
2022-12-23T16:03:13.647Z,12.90
2022-12-23T16:05:44.893Z,12.90
2022-12-23T16:08:28.997Z,12.90
2022-12-23T16:11:04.311Z,12.90
2022-12-23T16:13:32.351Z,12.90
2022-12-23T16:16:18.254Z,12.90
2022-12-23T16:18:48.185Z,12.90
2022-12-23T16:21:16.816Z,12.90
2022-12-23T16:23:51.714Z,12.90
2022-12-23T16:26:20.238Z,12.90
2022-12-23T16:28:50.494Z,13.00
2022-12-23T16:31:27.512Z,13.00
2022-12-23T16:33:58.893Z,13.00
2022-12-23T16:36:34.979Z,13.00
2022-12-23T16:39:22.493Z,13.00
2022-12-23T16:41:51.558Z,13.00
2022-12-23T16:44:19.618Z,13.00
2022-12-23T16:46:50.575Z,13.00
2022-12-23T16:49:21.860Z,13.00
2022-12-23T16:51:50.183Z,13.00
2022-12-23T16:54:20.327Z,13.00
2022-12-23T16:56:48.367Z,13.00
2022-12-23T16:59:16.836Z,13.00
2022-12-23T17:01:46.869Z,13.00
2022-12-23T17:04:15.392Z,13.00
2022-12-23T17:06:46.549Z,13.00
2022-12-23T17:09:14.726Z,13.00
2022-12-23T17:11:45.821Z,13.00
2022-12-23T17:14:17.805Z,13.00
2022-12-23T17:16:46.326Z,13.00
2022-12-23T17:19:14.639Z,13.00
2022-12-23T17:21:45.797Z,13.00
2022-12-23T17:24:22.477Z,13.00
2022-12-23T17:26:50.904Z,13.00
2022-12-23T17:29:18.853Z,13.00
2022-12-23T17:31:48.393Z,13.00
2022-12-23T17:34:17.728Z,13.00
2022-12-23T17:36:50.377Z,13.00
2022-12-23T17:39:19.126Z,13.10
2022-12-23T17:41:47.622Z,13.10
2022-12-23T17:44:17.018Z,13.10
2022-12-23T17:46:46.367Z,13.10
2022-12-23T17:49:14.455Z,13.10
2022-12-23T17:51:43.150Z,13.10
2022-12-23T17:54:21.891Z,13.10
2022-12-23T17:56:50.038Z,13.10
2022-12-23T17:59:18.048Z,13.10
2022-12-23T18:01:46.069Z,13.10
2022-12-23T18:04:14.103Z,13.10
2022-12-23T18:06:41.983Z,13.10
2022-12-23T18:09:09.944Z,13.20
2022-12-23T18:11:42.001Z,13.10
2022-12-23T18:14:17.251Z,13.10
2022-12-23T18:16:45.244Z,13.10
2022-12-23T18:19:17.976Z,13.10
2022-12-23T18:21:46.264Z,13.20
2022-12-23T18:24:14.403Z,13.20
2022-12-23T18:26:43.856Z,13.20
2022-12-23T18:29:11.770Z,13.20
2022-12-23T18:31:51.864Z,13.20
2022-12-23T18:34:20.804Z,13.20
2022-12-23T18:36:51.753Z,13.20
2022-12-23T18:39:20.112Z,13.20
2022-12-23T18:41:49.516Z,13.10
2022-12-23T18:44:19.361Z,13.10
2022-12-23T18:46:47.465Z,13.10
2022-12-23T18:49:15.461Z,13.00
2022-12-23T18:51:43.341Z,13.00
2022-12-23T18:54:15.411Z,13.00
2022-12-23T18:57:01.080Z,13.00
2022-12-23T18:59:40.889Z,13.00
2022-12-23T19:06:11.048Z,13.00
2022-12-23T19:08:39.429Z,13.00
2022-12-23T19:11:11.890Z,13.00
2022-12-23T19:13:41.221Z,12.90
2022-12-23T19:16:09.332Z,12.90
2022-12-23T19:18:37.236Z,12.90
2022-12-23T19:21:06.381Z,12.90
2022-12-23T19:23:34.393Z,12.90
2022-12-23T19:26:04.311Z,12.90
2022-12-23T19:28:32.366Z,12.90
2022-12-23T19:31:01.741Z,12.90
2022-12-23T19:33:29.693Z,12.80
2022-12-23T19:35:57.663Z,12.80
2022-12-23T19:38:27.099Z,12.80
2022-12-23T19:40:58.951Z,12.80
2022-12-23T19:43:26.883Z,12.80
2022-12-23T19:45:59.253Z,12.80
2022-12-23T19:48:29.207Z,12.80
2022-12-23T19:51:02.184Z,12.80
2022-12-23T19:53:30.313Z,12.80
2022-12-23T19:55:59.574Z,12.80
2022-12-23T19:58:27.574Z,12.80
2022-12-23T20:01:06.225Z,12.80
2022-12-23T20:03:35.831Z,12.80
2022-12-23T20:06:05.334Z,12.90
2022-12-23T20:08:33.694Z,12.80
2022-12-23T20:11:07.230Z,12.80
2022-12-23T20:13:35.865Z,12.80
2022-12-23T20:16:06.827Z,12.80
2022-12-23T20:18:36.591Z,12.80
2022-12-23T20:21:04.769Z,12.80
2022-12-23T20:23:33.186Z,12.80
2022-12-23T20:26:01.203Z,12.80
2022-12-23T20:28:29.509Z,12.80
2022-12-23T20:31:02.219Z,12.80
2022-12-23T20:33:30.274Z,12.80
2022-12-23T20:35:59.541Z,12.80
2022-12-23T20:38:27.515Z,12.80
2022-12-23T20:40:55.449Z,12.80
2022-12-23T20:43:23.430Z,12.80
2022-12-23T20:45:52.064Z,12.70
2022-12-23T20:48:21.626Z,12.70
2022-12-23T20:50:50.085Z,12.70
2022-12-23T20:53:19.381Z,12.70
2022-12-23T20:55:47.313Z,12.70
2022-12-23T20:58:33.201Z,12.70
2022-12-23T21:01:09.728Z,12.80
2022-12-23T21:03:37.715Z,12.80
2022-12-23T21:06:06.283Z,12.80
2022-12-23T21:08:36.121Z,12.80
2022-12-23T21:11:04.371Z,12.80
2022-12-23T22:16:13.445Z,12.40
2022-12-23T22:18:41.984Z,12.40
2022-12-23T22:21:13.970Z,12.40
2022-12-23T22:23:42.358Z,12.40
2022-12-23T22:26:35.431Z,12.40
2022-12-23T22:29:08.243Z,12.40
2022-12-23T22:31:46.581Z,12.40
2022-12-23T22:34:24.268Z,12.40
2022-12-23T22:37:03.638Z,12.40
2022-12-23T22:39:37.293Z,12.40
2022-12-23T22:42:05.307Z,12.40
2022-12-23T22:44:33.289Z,12.40
2022-12-23T22:47:02.757Z,12.40
2022-12-23T22:49:30.856Z,12.30
2022-12-23T22:51:58.763Z,12.30
2022-12-23T22:54:26.721Z,12.30
2022-12-23T22:56:54.576Z,12.30
2022-12-23T22:59:25.659Z,12.30
2022-12-23T23:01:54.534Z,12.30
2022-12-23T23:04:24.230Z,12.30
2022-12-23T23:06:52.205Z,12.30
2022-12-23T23:09:21.587Z,12.20
2022-12-23T23:11:49.844Z,12.30
2022-12-23T23:14:18.687Z,12.30
2022-12-23T23:16:46.708Z,12.20
2022-12-23T23:19:15.210Z,12.30
2022-12-23T23:21:44.535Z,12.30
2022-12-23T23:24:12.486Z,12.30
2022-12-23T23:26:40.680Z,12.30
2022-12-23T23:29:08.592Z,12.30
2022-12-23T23:31:44.719Z,12.30
2022-12-23T23:34:13.289Z,12.30
2022-12-23T23:36:41.340Z,12.30
2022-12-23T23:39:13.177Z,12.30
2022-12-23T23:41:41.338Z,12.30
2022-12-23T23:44:09.621Z,12.30
2022-12-23T23:46:37.674Z,12.30
2022-12-23T23:49:05.642Z,12.30
2022-12-23T23:51:33.523Z,12.30
2022-12-23T23:54:01.374Z,12.30
2022-12-23T23:56:37.567Z,12.30
2022-12-23T23:59:06.403Z,12.30
